< < Back
Terminal Aerodrome Forecast


Current Version              Previous Versions:   1  2  3  4  5  6  7  8  9  

Terminal Aerodrome Forecast

640
FTUS44 KBMX 160800 AAA
TAFBHM
TAF AMD
KBHM 160820Z 1608/1706 00000KT P6SM BKN120 OVC250
     FM161400 35005KT P6SM SCT040 BKN250
     FM161900 32008KT P6SM SCT250
     FM170000 33003KT P6SM SCT250=

Latest METAR

525
SAUS70 KWBC 152100 RRX
MTRBHM
METAR KBHM 162053Z 01007KT 10SM SCT040 30/20 A3002 RMK AO2 SLP155
T03000200 58025


USA.gov is the U.S. government's official web portal to all federal, state and local government web resources and services.